EDHL/LBC METAR and TAF weather

Enter ICAO airport designator
Station Type Date Time Source
EDHL METAR 2019/08/21 09:20 UTC NOAA

EDHL 210920Z 26009KT 9999 SCT025 19/12 Q1027


Station Type Date Time Source
EDHL Decoded METAR 2019/08/21 09:20 UTC NOAA

Station name not available
Aug 21, 2019 - 05:20 AM EDT / 2019.08.21 0920 UTC
Wind: from the W (260 degrees) at 10 MPH (9 KT):0
Visibility: greater than 7 mile(s):0
Sky conditions: partly cloudy
Temperature: 66 F (19 C)
Dew Point: 53 F (12 C)
Relative Humidity: 63%
Pressure (altimeter): 30.33 in. Hg (1027 hPa)
ob: EDHL 210920Z 26009KT 9999 SCT025 19/12 Q1027
cycle: 9

Station Type Date Time Source
EDHL TAF 2010/02/22 14:20 UTC NOAA

METAR EDHL 221420Z 15004KT 110V180 9999 FEW039 SCT120 05/02 Q0990
RMK X

Example: see airport list